Time;durP1;ratioP1;P1;durP2;ratioP2;P2;SDS_P1;SDS_P2;PMS_P1;PMS_P2;Temp;Humidity;BMP_temperature;BMP_pressure;BME280_temperature;BME280_humidity;BME280_pressure;Samples;Min_cycle;Max_cycle;Signal;HPM_P1;HPM_P2
2023/03/26 00:00:43;;;;;;;1.43;1.10;;;9.30;98.00;;;;;;5035048;28;20478;-67
2023/03/26 00:03:12;;;;;;;1.63;1.20;;;9.30;98.00;;;;;;5034896;28;20465;-68
2023/03/26 00:05:39;;;;;;;1.60;1.03;;;9.20;98.00;;;;;;5035078;28;20833;-68
2023/03/26 00:08:08;;;;;;;1.40;1.27;;;9.10;98.00;;;;;;5034660;28;20476;-67
2023/03/26 00:10:36;;;;;;;4.17;1.37;;;9.00;98.00;;;;;;5034872;28;20556;-67
2023/03/26 00:13:06;;;;;;;1.67;1.30;;;8.80;98.00;;;;;;5034696;28;20456;-67
2023/03/26 00:15:35;;;;;;;1.83;1.20;;;8.90;98.00;;;;;;5034790;28;20457;-68
2023/03/26 00:18:03;;;;;;;1.70;1.40;;;9.00;98.00;;;;;;5034225;28;20562;-67
2023/03/26 00:20:31;;;;;;;1.23;1.07;;;9.20;98.00;;;;;;5034658;28;20467;-67
2023/03/26 00:23:00;;;;;;;1.40;1.20;;;9.30;98.00;;;;;;5034544;28;20457;-67
2023/03/26 00:25:30;;;;;;;2.47;1.20;;;9.20;98.00;;;;;;5034616;28;20909;-66
2023/03/26 00:27:58;;;;;;;1.43;1.27;;;9.10;98.00;;;;;;5034534;28;20911;-67
2023/03/26 00:30:26;;;;;;;1.57;1.13;;;9.00;98.00;;;;;;5034781;28;20546;-68
2023/03/26 00:32:53;;;;;;;2.53;1.40;;;8.90;98.00;;;;;;5034597;28;20479;-67
2023/03/26 00:35:21;;;;;;;3.07;1.47;;;8.90;98.00;;;;;;5034511;28;20460;-67
2023/03/26 00:37:50;;;;;;;1.30;1.20;;;9.00;98.00;;;;;;5034530;28;20552;-67
2023/03/26 00:40:17;;;;;;;1.20;1.03;;;9.10;98.00;;;;;;5034412;28;20462;-68
2023/03/26 00:42:47;;;;;;;1.87;1.30;;;9.10;98.00;;;;;;5034163;28;20462;-68
2023/03/26 00:45:14;;;;;;;1.97;1.30;;;9.10;98.00;;;;;;5034065;28;20464;-67
2023/03/26 00:47:44;;;;;;;3.13;1.40;;;9.10;98.00;;;;;;5033651;28;20463;-67
2023/03/26 00:50:14;;;;;;;2.47;1.40;;;9.10;98.00;;;;;;5033748;28;20965;-68
2023/03/26 00:52:42;;;;;;;2.13;1.30;;;9.10;98.00;;;;;;5034032;28;20525;-67
2023/03/26 00:55:10;;;;;;;1.87;1.20;;;9.10;98.00;;;;;;5032828;28;20500;-67
2023/03/26 00:57:39;;;;;;;3.83;1.50;;;9.10;98.00;;;;;;5033789;28;20479;-68
2023/03/26 01:00:15;;;;;;;1.20;1.20;;;9.20;98.00;;;;;;5033914;28;20536;-67
2023/03/26 01:02:45;;;;;;;22.93;1.23;;;9.20;98.00;;;;;;5033854;28;20456;-67
2023/03/26 01:05:41;;;;;;;1.60;1.17;;;9.20;98.00;;;;;;5033773;28;20517;-67
2023/03/26 01:08:24;;;;;;;1.60;1.20;;;9.20;98.00;;;;;;5033680;28;20455;-67
2023/03/26 01:10:52;;;;;;;1.50;1.43;;;9.10;98.00;;;;;;5033806;28;20460;-68
2023/03/26 01:13:22;;;;;;;1.20;1.00;;;9.10;98.00;;;;;;5032318;28;20468;-67
2023/03/26 01:15:51;;;;;;;2.90;1.80;;;9.10;98.00;;;;;;5033592;28;20461;-68
2023/03/26 01:18:25;;;;;;;1.20;1.10;;;9.00;98.00;;;;;;5033385;28;20665;-67
2023/03/26 01:20:57;;;;;;;1.90;1.20;;;9.00;98.00;;;;;;5033554;28;20478;-67
2023/03/26 01:23:34;;;;;;;1.60;1.23;;;8.90;98.00;;;;;;5033361;28;20458;-68
2023/03/26 01:26:16;;;;;;;2.70;1.30;;;9.00;98.00;;;;;;5032529;28;20464;-68
2023/03/26 01:28:43;;;;;;;1.50;1.20;;;9.10;98.00;;;;;;5032959;28;20455;-67
2023/03/26 01:31:18;;;;;;;1.70;1.40;;;9.00;98.00;;;;;;5032777;28;20542;-67
2023/03/26 01:33:52;;;;;;;2.07;1.30;;;9.10;98.00;;;;;;5033049;28;20471;-67
2023/03/26 01:36:25;;;;;;;1.40;1.07;;;8.90;98.00;;;;;;5032760;28;20457;-67
2023/03/26 01:38:59;;;;;;;1.20;1.00;;;8.90;98.00;;;;;;5033127;28;20490;-68
2023/03/26 01:41:36;;;;;;;1.40;1.17;;;8.90;98.00;;;;;;5031790;28;20501;-68
2023/03/26 01:44:10;;;;;;;1.20;1.00;;;9.00;98.00;;;;;;5033044;28;20852;-66
2023/03/26 01:46:41;;;;;;;1.20;1.10;;;9.00;98.00;;;;;;5032963;28;20560;-67
2023/03/26 01:49:11;;;;;;;1.40;1.20;;;9.10;98.00;;;;;;5032787;28;20482;-68
2023/03/26 01:51:40;;;;;;;2.47;1.10;;;9.10;98.00;;;;;;5032856;28;20455;-67
2023/03/26 01:54:10;;;;;;;5.57;1.37;;;9.10;98.00;;;;;;5032872;28;21004;-67
2023/03/26 01:56:53;;;;;;;2.97;1.40;;;9.20;98.00;;;;;;5032637;28;20454;-67
2023/03/26 01:59:42;;;;;;;5.27;1.20;;;9.30;98.00;;;;;;5031931;28;20542;-68
2023/03/26 02:02:13;;;;;;;1.30;1.00;;;9.20;98.00;;;;;;5032576;28;20449;-67
2023/03/26 02:04:47;;;;;;;4.80;1.20;;;9.20;98.00;;;;;;5032906;28;20477;-68
2023/03/26 02:07:22;;;;;;;1.30;1.10;;;9.30;98.00;;;;;;5032536;28;20960;-67
2023/03/26 02:09:54;;;;;;;1.60;1.20;;;9.40;98.00;;;;;;5032669;28;20450;-68
2023/03/26 02:12:25;;;;;;;1.57;1.17;;;9.20;98.00;;;;;;5032472;28;20470;-69
2023/03/26 02:14:52;;;;;;;1.30;1.10;;;9.30;98.00;;;;;;5032575;28;20991;-66
2023/03/26 02:17:22;;;;;;;2.27;1.37;;;9.10;98.00;;;;;;5032175;28;20848;-67
2023/03/26 02:19:50;;;;;;;4.60;1.60;;;8.90;98.00;;;;;;5032335;28;20500;-67
2023/03/26 02:22:18;;;;;;;1.30;1.13;;;8.80;98.00;;;;;;5032360;28;20547;-67
2023/03/26 02:24:45;;;;;;;4.03;1.00;;;8.70;98.00;;;;;;5032500;28;20460;-67
2023/03/26 02:27:17;;;;;;;1.80;1.20;;;8.80;98.00;;;;;;5032350;28;20466;-67
2023/03/26 02:29:46;;;;;;;1.77;1.50;;;8.70;98.00;;;;;;5032550;28;20482;-68
2023/03/26 02:32:13;;;;;;;2.20;1.73;;;8.70;98.00;;;;;;5032214;28;20503;-68
2023/03/26 02:34:41;;;;;;;2.93;1.23;;;8.70;98.00;;;;;;5032385;28;20937;-67
2023/03/26 02:37:09;;;;;;;4.57;1.30;;;8.90;98.00;;;;;;5032149;28;20454;-68
2023/03/26 02:39:36;;;;;;;1.50;1.33;;;8.80;98.00;;;;;;5032233;28;20541;-67
2023/03/26 02:42:04;;;;;;;1.27;1.27;;;8.90;98.00;;;;;;5031922;28;20558;-68
2023/03/26 02:44:31;;;;;;;1.20;1.10;;;8.80;98.00;;;;;;5030990;28;20447;-68
2023/03/26 02:46:59;;;;;;;5.43;1.47;;;8.80;98.00;;;;;;5031785;28;20459;-68
2023/03/26 02:49:26;;;;;;;1.20;1.20;;;8.70;98.00;;;;;;5032130;28;20466;-67
2023/03/26 02:51:55;;;;;;;1.30;1.20;;;8.60;98.00;;;;;;5031661;28;20931;-67
2023/03/26 02:54:22;;;;;;;1.20;1.00;;;8.60;98.00;;;;;;5031735;28;20493;-67
2023/03/26 02:56:49;;;;;;;1.47;1.10;;;8.50;98.00;;;;;;5030428;28;20488;-68
2023/03/26 02:59:17;;;;;;;1.50;1.20;;;8.50;98.00;;;;;;5031759;28;20487;-67
2023/03/26 03:01:45;;;;;;;3.00;1.33;;;8.40;98.00;;;;;;5031860;28;20462;-67
2023/03/26 03:04:13;;;;;;;4.77;1.40;;;8.40;98.00;;;;;;5031877;28;20519;-67
2023/03/26 03:06:40;;;;;;;1.60;1.20;;;8.50;98.00;;;;;;5031709;28;20488;-68
2023/03/26 03:09:08;;;;;;;1.30;1.03;;;8.50;98.00;;;;;;5031971;28;20927;-68
2023/03/26 03:11:36;;;;;;;1.60;1.53;;;8.40;98.00;;;;;;5036060;28;20450;-68
2023/03/26 03:14:04;;;;;;;1.20;1.00;;;8.40;98.00;;;;;;5034560;28;20468;-68
2023/03/26 03:16:31;;;;;;;1.40;1.20;;;8.50;98.00;;;;;;5035774;28;20462;-67
2023/03/26 03:18:58;;;;;;;1.83;1.20;;;8.40;98.00;;;;;;5035622;28;20492;-67
2023/03/26 03:21:28;;;;;;;1.93;1.30;;;8.30;98.00;;;;;;5035670;28;20460;-67
2023/03/26 03:23:56;;;;;;;1.63;1.13;;;8.40;98.00;;;;;;5035906;28;20542;-67
2023/03/26 03:26:26;;;;;;;1.60;1.20;;;8.60;98.00;;;;;;5035670;28;20806;-67
2023/03/26 03:28:55;;;;;;;2.23;1.20;;;8.70;98.00;;;;;;5035831;28;20447;-67
2023/03/26 03:31:23;;;;;;;1.40;1.20;;;8.60;98.00;;;;;;5035680;28;21007;-67
2023/03/26 03:33:51;;;;;;;1.30;1.10;;;8.60;98.00;;;;;;5035844;28;20470;-67
2023/03/26 03:36:21;;;;;;;1.57;1.20;;;8.50;98.00;;;;;;5035409;28;20453;-67
2023/03/26 03:38:50;;;;;;;1.40;1.30;;;8.40;98.00;;;;;;5035435;28;21056;-67
2023/03/26 03:41:18;;;;;;;1.40;1.20;;;8.30;98.00;;;;;;5035164;28;20456;-68
2023/03/26 03:43:45;;;;;;;9.70;1.53;;;8.30;98.00;;;;;;5034221;28;20548;-67
2023/03/26 03:46:12;;;;;;;1.93;1.30;;;8.30;98.00;;;;;;5035017;28;20465;-67
2023/03/26 03:48:39;;;;;;;1.30;1.10;;;8.30;98.00;;;;;;5034029;28;20552;-67
2023/03/26 03:51:09;;;;;;;1.20;1.07;;;8.30;98.00;;;;;;5035099;28;20458;-67
2023/03/26 03:53:39;;;;;;;1.70;1.60;;;8.30;98.00;;;;;;5035186;28;20491;-67
2023/03/26 03:56:09;;;;;;;4.50;1.10;;;8.30;98.00;;;;;;5033873;28;20805;-67
2023/03/26 03:58:36;;;;;;;2.00;1.20;;;8.30;98.00;;;;;;5034889;28;20577;-67
2023/03/26 04:01:03;;;;;;;1.80;1.23;;;8.30;98.00;;;;;;5035023;28;20928;-67
2023/03/26 04:03:37;;;;;;;1.83;1.33;;;8.40;98.00;;;;;;5034955;28;20450;-67
2023/03/26 04:06:05;;;;;;;1.53;1.27;;;8.40;98.00;;;;;;5034875;28;20452;-67
2023/03/26 04:08:33;;;;;;;2.00;1.37;;;8.50;98.00;;;;;;5034977;28;20550;-67
2023/03/26 04:11:00;;;;;;;2.73;1.40;;;8.40;98.00;;;;;;5034658;28;20469;-68
2023/03/26 04:13:36;;;;;;;1.50;1.20;;;8.30;98.00;;;;;;5034984;28;20944;-67
2023/03/26 04:16:03;;;;;;;1.20;1.10;;;8.30;98.00;;;;;;5034914;28;20867;-67
2023/03/26 04:18:31;;;;;;;1.47;1.10;;;8.40;98.00;;;;;;5034515;28;20546;-67
2023/03/26 04:21:02;;;;;;;1.90;1.40;;;8.40;98.00;;;;;;5033833;28;20458;-67
2023/03/26 04:23:29;;;;;;;1.87;1.20;;;8.50;98.00;;;;;;5034783;28;21013;-68
2023/03/26 04:25:58;;;;;;;3.97;2.00;;;8.70;98.00;;;;;;5034669;28;20984;-68
2023/03/26 04:28:30;;;;;;;3.17;2.00;;;8.70;98.00;;;;;;5034766;28;20810;-68
2023/03/26 04:31:02;;;;;;;2.73;1.50;;;8.60;98.00;;;;;;5034640;28;20465;-67
2023/03/26 04:33:32;;;;;;;2.20;1.37;;;8.50;98.00;;;;;;5034532;28;20466;-67
2023/03/26 04:36:01;;;;;;;2.03;1.20;;;8.50;98.00;;;;;;5034566;28;20465;-67
2023/03/26 04:38:32;;;;;;;2.00;1.30;;;8.30;98.00;;;;;;5034049;28;20488;-67
2023/03/26 04:40:59;;;;;;;1.83;1.13;;;8.50;98.00;;;;;;5034195;28;20454;-68
2023/03/26 04:43:27;;;;;;;1.40;1.20;;;8.60;98.00;;;;;;5034131;28;21013;-66
2023/03/26 04:45:55;;;;;;;1.30;1.10;;;8.60;98.00;;;;;;5034066;28;20542;-67
2023/03/26 04:48:22;;;;;;;1.37;1.20;;;8.70;98.00;;;;;;5033976;28;20468;-67
2023/03/26 04:50:50;;;;;;;2.13;1.47;;;8.70;98.00;;;;;;5034010;28;20502;-67
2023/03/26 04:53:21;;;;;;;1.50;1.40;;;8.70;98.00;;;;;;5033963;28;20544;-67
2023/03/26 04:55:53;;;;;;;2.00;1.40;;;8.70;98.00;;;;;;5033939;28;21043;-67
2023/03/26 04:58:20;;;;;;;1.80;1.10;;;8.60;98.00;;;;;;5033723;28;20451;-67
2023/03/26 05:00:48;;;;;;;1.50;1.23;;;8.50;98.00;;;;;;5034047;28;20460;-67
2023/03/26 05:03:19;;;;;;;1.70;1.30;;;8.50;98.00;;;;;;5033874;28;20468;-68
2023/03/26 05:05:48;;;;;;;1.40;1.20;;;8.50;98.00;;;;;;5033871;28;20454;-67
2023/03/26 05:08:16;;;;;;;1.70;1.17;;;8.40;98.00;;;;;;5033760;28;20480;-68
2023/03/26 05:10:45;;;;;;;1.30;1.20;;;8.30;98.00;;;;;;5033737;28;20466;-67
2023/03/26 05:13:12;;;;;;;3.80;1.20;;;8.30;98.00;;;;;;5033778;28;20464;-67
2023/03/26 05:15:39;;;;;;;1.50;1.10;;;8.40;98.00;;;;;;5033825;28;20823;-67
2023/03/26 05:18:07;;;;;;;6.60;1.20;;;8.40;98.00;;;;;;5033441;28;20455;-67
2023/03/26 05:20:37;;;;;;;1.50;1.17;;;8.30;98.00;;;;;;5033628;28;20516;-67
2023/03/26 05:23:04;;;;;;;2.70;1.30;;;8.30;98.00;;;;;;5033609;28;20464;-67
2023/03/26 05:25:31;;;;;;;1.33;1.20;;;8.30;98.00;;;;;;5033576;28;20824;-67
2023/03/26 05:27:58;;;;;;;7.13;1.67;;;8.40;98.00;;;;;;5032297;28;20881;-67
2023/03/26 05:30:25;;;;;;;1.60;1.20;;;8.50;98.00;;;;;;5033562;28;20804;-67
2023/03/26 05:32:53;;;;;;;1.60;1.30;;;8.50;98.00;;;;;;5033207;28;20463;-67
2023/03/26 05:35:20;;;;;;;1.30;1.20;;;8.60;98.00;;;;;;5033377;28;20471;-68
2023/03/26 05:37:50;;;;;;;1.70;1.20;;;8.50;98.00;;;;;;5032971;28;20455;-67
2023/03/26 05:40:17;;;;;;;1.50;1.20;;;8.60;98.00;;;;;;5033146;28;21163;-68
2023/03/26 05:42:45;;;;;;;1.20;1.20;;;8.70;98.00;;;;;;5033107;28;20460;-67
2023/03/26 05:45:15;;;;;;;3.90;1.70;;;8.60;98.00;;;;;;5033000;28;20565;-66
2023/03/26 05:47:42;;;;;;;1.90;1.13;;;8.60;98.00;;;;;;5032901;28;20466;-67
2023/03/26 05:50:10;;;;;;;2.90;1.20;;;8.70;98.00;;;;;;5032832;28;20454;-66
2023/03/26 05:52:38;;;;;;;1.67;1.23;;;8.80;98.00;;;;;;5032644;28;20475;-67
2023/03/26 05:55:32;;;;;;;2.23;1.60;;;8.80;98.00;;;;;;5032754;28;20466;-67
2023/03/26 05:57:59;;;;;;;1.40;1.10;;;8.70;98.00;;;;;;5032857;28;20560;-67
2023/03/26 06:00:27;;;;;;;2.60;1.40;;;8.70;98.00;;;;;;5032691;28;20486;-67
2023/03/26 06:02:55;;;;;;;2.90;1.33;;;8.70;98.00;;;;;;5032667;28;20999;-67
2023/03/26 06:05:25;;;;;;;3.03;1.50;;;8.90;98.00;;;;;;5031581;28;20462;-67
2023/03/26 06:07:53;;;;;;;1.20;1.10;;;8.90;98.00;;;;;;5032523;28;21163;-67
2023/03/26 06:10:20;;;;;;;1.40;1.07;;;9.00;98.00;;;;;;5032503;28;20470;-67
2023/03/26 06:12:51;;;;;;;1.50;1.20;;;9.10;98.00;;;;;;5032475;28;20455;-67
2023/03/26 06:15:18;;;;;;;1.60;1.40;;;9.10;98.00;;;;;;5032463;28;20539;-68
2023/03/26 06:17:45;;;;;;;1.20;1.20;;;9.20;98.00;;;;;;5032621;28;20464;-68
2023/03/26 06:20:13;;;;;;;6.47;1.83;;;9.40;98.00;;;;;;5032356;28;20881;-67
2023/03/26 06:22:40;;;;;;;4.43;1.37;;;9.20;98.00;;;;;;5032579;28;20462;-67
2023/03/26 06:25:08;;;;;;;1.77;1.40;;;8.90;98.00;;;;;;5032524;28;20470;-67
2023/03/26 06:27:35;;;;;;;1.70;1.40;;;8.90;98.00;;;;;;5032496;28;20485;-67
2023/03/26 06:30:05;;;;;;;1.30;1.10;;;9.10;98.00;;;;;;5032717;28;20932;-67
2023/03/26 06:32:32;;;;;;;1.60;1.20;;;8.80;98.00;;;;;;5032073;28;20474;-67
2023/03/26 06:34:59;;;;;;;1.50;1.30;;;8.80;98.00;;;;;;5032067;28;21011;-67
2023/03/26 06:37:26;;;;;;;1.50;1.20;;;8.70;98.00;;;;;;5032101;28;20454;-67
2023/03/26 06:39:53;;;;;;;1.60;1.40;;;8.60;98.00;;;;;;5030848;28;21025;-67
2023/03/26 06:42:20;;;;;;;2.30;2.00;;;8.70;98.00;;;;;;5031684;28;20520;-67
2023/03/26 06:44:47;;;;;;;3.53;2.37;;;8.60;98.00;;;;;;5031628;28;20454;-67
2023/03/26 06:47:16;;;;;;;2.80;1.90;;;8.50;98.00;;;;;;5031921;28;20812;-68
2023/03/26 06:49:43;;;;;;;1.63;1.30;;;8.30;98.00;;;;;;5031076;28;20469;-68
2023/03/26 06:52:13;;;;;;;1.40;1.40;;;8.30;98.00;;;;;;5031888;28;20509;-67
2023/03/26 06:54:40;;;;;;;2.20;1.47;;;8.30;98.00;;;;;;5031891;28;20487;-68
2023/03/26 06:57:07;;;;;;;2.10;1.30;;;8.50;98.00;;;;;;5031739;28;20454;-68
2023/03/26 06:59:34;;;;;;;1.47;1.27;;;8.70;98.00;;;;;;5031769;28;20489;-68
2023/03/26 07:02:01;;;;;;;1.30;1.10;;;8.80;98.00;;;;;;5031707;28;21001;-63
2023/03/26 07:04:30;;;;;;;7.03;1.50;;;8.90;98.00;;;;;;5031967;28;20527;-63
2023/03/26 07:06:57;;;;;;;1.47;1.20;;;9.10;98.00;;;;;;5031718;28;20465;-64
2023/03/26 07:09:29;;;;;;;2.13;1.20;;;9.20;98.00;;;;;;5031775;28;20929;-64
2023/03/26 07:11:56;;;;;;;6.87;1.30;;;9.20;98.00;;;;;;5030733;28;20463;-63
2023/03/26 07:14:26;;;;;;;1.97;1.23;;;9.20;98.00;;;;;;5031876;28;20554;-63
2023/03/26 07:16:53;;;;;;;4.83;1.43;;;9.30;98.00;;;;;;5031844;28;21037;-63
2023/03/26 07:19:21;;;;;;;1.63;1.07;;;9.30;98.00;;;;;;5031617;28;21140;-64
2023/03/26 07:21:51;;;;;;;1.33;1.30;;;9.30;98.00;;;;;;5031930;28;20454;-63
2023/03/26 07:24:19;;;;;;;2.27;1.30;;;9.30;98.00;;;;;;5031956;28;20472;-63
2023/03/26 07:26:54;;;;;;;3.73;1.57;;;9.30;98.00;;;;;;5030621;28;20471;-64
2023/03/26 07:29:30;;;;;;;2.13;1.20;;;9.30;98.00;;;;;;5030846;28;20491;-63
2023/03/26 07:32:03;;;;;;;1.30;1.30;;;9.40;98.00;;;;;;5011899;28;20467;-63
2023/03/26 07:34:45;;;;;;;1.87;1.17;;;9.50;98.00;;;;;;5011958;28;20480;-64
2023/03/26 07:37:26;;;;;;;3.00;1.30;;;9.50;98.00;;;;;;5011758;28;20517;-63
2023/03/26 07:39:58;;;;;;;6.40;2.23;;;9.50;98.00;;;;;;5009864;28;20885;-63
2023/03/26 07:42:38;;;;;;;1.60;1.10;;;9.60;98.00;;;;;;5011174;28;20473;-64
2023/03/26 07:45:17;;;;;;;1.57;1.27;;;9.60;98.00;;;;;;5011116;28;20461;-63
2023/03/26 07:47:45;;;;;;;5.77;2.33;;;9.50;98.00;;;;;;5010959;28;20461;-63
2023/03/26 07:50:16;;;;;;;3.00;1.93;;;9.50;98.00;;;;;;5010516;28;20464;-63
2023/03/26 07:52:45;;;;;;;2.87;1.60;;;9.60;98.00;;;;;;5011603;28;21044;-63
2023/03/26 07:55:15;;;;;;;7.80;1.77;;;9.60;98.00;;;;;;5011550;28;20554;-63
2023/03/26 07:57:52;;;;;;;1.53;1.40;;;9.60;98.00;;;;;;5013901;28;20466;-63
2023/03/26 08:00:23;;;;;;;2.00;1.30;;;9.60;98.00;;;;;;5015355;28;20490;-63
2023/03/26 08:03:19;;;;;;;1.57;1.23;;;9.60;98.00;;;;;;5015073;28;20466;-63
2023/03/26 08:05:53;;;;;;;1.43;1.30;;;9.60;98.00;;;;;;4979883;28;20548;-64
2023/03/26 08:08:31;;;;;;;2.13;1.30;;;9.60;98.00;;;;;;5015155;28;20460;-63
2023/03/26 08:11:10;;;;;;;4.23;1.33;;;9.60;98.00;;;;;;5015142;28;20467;-63
2023/03/26 08:13:52;;;;;;;3.13;1.53;;;9.50;98.00;;;;;;5015081;28;21013;-63
2023/03/26 08:16:26;;;;;;;7.80;2.47;;;9.50;98.00;;;;;;5015064;28;20937;-64
2023/03/26 08:19:01;;;;;;;1.30;1.10;;;9.50;98.00;;;;;;5025963;28;20882;-63
2023/03/26 08:21:32;;;;;;;2.13;1.50;;;9.50;98.00;;;;;;5052965;28;20567;-64
2023/03/26 08:24:09;;;;;;;2.23;1.27;;;9.60;98.00;;;;;;5053904;28;20947;-63
2023/03/26 08:26:43;;;;;;;4.03;1.63;;;9.60;98.00;;;;;;5054022;28;20465;-63
2023/03/26 08:29:18;;;;;;;3.33;1.50;;;9.50;98.00;;;;;;5053949;28;20458;-64
2023/03/26 08:31:48;;;;;;;1.83;1.50;;;9.50;98.00;;;;;;5053736;28;21026;-63
2023/03/26 08:34:16;;;;;;;1.30;1.30;;;9.50;98.00;;;;;;5053752;28;20453;-63
2023/03/26 08:36:43;;;;;;;1.20;1.20;;;9.50;98.00;;;;;;5053569;28;20489;-63
2023/03/26 08:39:13;;;;;;;1.70;1.40;;;9.40;98.00;;;;;;5053786;28;20532;-63
2023/03/26 08:42:04;;;;;;;3.27;1.40;;;9.30;98.00;;;;;;5053516;28;20482;-63
2023/03/26 08:45:09;;;;;;;2.60;1.20;;;9.40;98.00;;;;;;5053684;28;20887;-63
2023/03/26 08:48:27;;;;;;;2.40;1.47;;;9.40;98.00;;;;;;5053378;28;20496;-63
2023/03/26 08:51:30;;;;;;;2.10;1.40;;;9.30;98.00;;;;;;5040660;28;20473;-63
2023/03/26 08:54:29;;;;;;;1.53;1.23;;;9.40;98.00;;;;;;5049324;28;20461;-63
2023/03/26 08:57:19;;;;;;;2.03;1.47;;;9.40;98.00;;;;;;5053383;28;20468;-63
2023/03/26 09:00:28;;;;;;;1.93;1.30;;;9.40;98.00;;;;;;5053065;28;20483;-63
2023/03/26 09:03:32;;;;;;;1.40;1.20;;;9.50;98.00;;;;;;5050388;28;20462;-63
2023/03/26 09:06:31;;;;;;;6.40;1.93;;;9.50;98.00;;;;;;5053394;28;20463;-63
2023/03/26 09:09:43;;;;;;;2.70;1.33;;;9.70;98.00;;;;;;5030261;28;20463;-63
2023/03/26 09:12:33;;;;;;;1.70;1.23;;;9.70;98.00;;;;;;4971127;28;20463;-63
2023/03/26 09:15:42;;;;;;;2.37;1.63;;;9.90;98.00;;;;;;5033568;28;20520;-63
2023/03/26 09:18:40;;;;;;;1.20;1.07;;;10.00;98.00;;;;;;4971788;28;20466;-63
2023/03/26 09:21:26;;;;;;;1.33;1.13;;;10.10;98.00;;;;;;4972352;28;20477;-63
2023/03/26 09:24:15;;;;;;;1.47;1.10;;;10.20;98.00;;;;;;5020287;28;20451;-63
2023/03/26 09:26:49;;;;;;;1.30;1.30;;;10.30;98.00;;;;;;5034007;28;20462;-63
2023/03/26 09:29:58;;;;;;;1.70;1.30;;;10.40;98.00;;;;;;5024520;28;20486;-63
2023/03/26 09:32:57;;;;;;;1.50;1.20;;;10.50;98.00;;;;;;5033405;28;20461;-63
2023/03/26 09:35:52;;;;;;;3.00;1.20;;;10.60;98.00;;;;;;5027222;28;20506;-63
2023/03/26 09:38:40;;;;;;;2.07;1.50;;;10.60;98.00;;;;;;5033111;28;20459;-63
2023/03/26 09:41:15;;;;;;;5.13;1.87;;;10.80;98.00;;;;;;5032761;28;20486;-62
2023/03/26 09:44:03;;;;;;;1.30;1.10;;;10.90;98.00;;;;;;5033187;28;20460;-63
2023/03/26 09:46:39;;;;;;;2.23;1.37;;;10.90;98.00;;;;;;5010976;28;20465;-63
2023/03/26 09:49:26;;;;;;;2.10;1.73;;;10.90;98.00;;;;;;5040290;28;20859;-63
2023/03/26 09:52:22;;;;;;;1.60;1.20;;;11.10;98.00;;;;;;5044116;28;20511;-63
2023/03/26 09:55:22;;;;;;;2.50;1.47;;;11.20;98.00;;;;;;5052456;28;20461;-63
2023/03/26 09:58:07;;;;;;;1.53;1.27;;;11.30;98.00;;;;;;5041209;28;20461;-63
2023/03/26 10:00:44;;;;;;;1.57;1.30;;;11.60;98.00;;;;;;5051304;28;20491;-63
2023/03/26 10:03:35;;;;;;;2.47;1.40;;;11.80;98.00;;;;;;5051740;28;20860;-63
2023/03/26 10:06:22;;;;;;;2.90;1.53;;;12.00;98.00;;;;;;5050292;28;20463;-63
2023/03/26 10:08:56;;;;;;;1.60;1.30;;;12.10;98.00;;;;;;5052061;28;20551;-63
2023/03/26 10:11:32;;;;;;;1.90;1.60;;;12.10;98.00;;;;;;5052254;28;20458;-63
2023/03/26 10:14:08;;;;;;;2.23;1.40;;;12.40;98.00;;;;;;5052192;28;20456;-63
2023/03/26 10:16:50;;;;;;;1.93;1.20;;;12.30;98.00;;;;;;5052182;28;20500;-63
2023/03/26 10:19:43;;;;;;;3.13;1.50;;;12.30;98.00;;;;;;5051321;28;20957;-64
2023/03/26 10:22:27;;;;;;;1.40;1.27;;;12.50;98.00;;;;;;5052333;28;20468;-63
2023/03/26 10:25:26;;;;;;;1.40;1.10;;;12.50;98.00;;;;;;5052346;28;20876;-64
2023/03/26 10:28:10;;;;;;;2.10;1.33;;;12.40;98.00;;;;;;5051844;28;20458;-63
2023/03/26 10:30:49;;;;;;;1.87;1.13;;;12.40;98.00;;;;;;5052322;28;20765;-64
2023/03/26 10:33:26;;;;;;;2.27;1.40;;;12.50;98.00;;;;;;5051884;28;20486;-63
2023/03/26 10:36:12;;;;;;;1.90;1.40;;;12.40;98.00;;;;;;5052046;28;20510;-63
2023/03/26 10:38:57;;;;;;;1.40;1.10;;;12.40;98.00;;;;;;5052081;28;20652;-63
2023/03/26 10:41:33;;;;;;;1.97;1.20;;;12.10;98.00;;;;;;5052013;28;20486;-63
2023/03/26 10:44:18;;;;;;;1.90;1.30;;;11.90;98.00;;;;;;5052075;28;20460;-63
2023/03/26 10:47:14;;;;;;;1.87;1.30;;;11.80;98.00;;;;;;5051970;28;20461;-63
2023/03/26 10:50:06;;;;;;;3.23;1.40;;;11.90;98.00;;;;;;5050299;28;20461;-63
2023/03/26 10:52:40;;;;;;;1.30;1.10;;;12.00;98.00;;;;;;5051905;28;20499;-64
2023/03/26 10:55:13;;;;;;;3.20;1.50;;;12.00;98.00;;;;;;5051521;28;20537;-64
2023/03/26 10:57:45;;;;;;;1.70;1.30;;;12.10;98.00;;;;;;5051807;28;20890;-63
2023/03/26 11:00:23;;;;;;;2.40;1.40;;;12.20;98.00;;;;;;5051440;28;20462;-63
2023/03/26 11:03:17;;;;;;;1.40;1.30;;;12.50;98.00;;;;;;5051686;28;20796;-63
2023/03/26 11:05:53;;;;;;;2.43;1.30;;;12.70;98.00;;;;;;5049116;28;20572;-64
2023/03/26 11:08:30;;;;;;;1.53;1.30;;;12.80;98.00;;;;;;5051384;28;20465;-63
2023/03/26 11:11:03;;;;;;;6.33;1.50;;;13.20;98.00;;;;;;5051527;28;20532;-63
2023/03/26 11:13:40;;;;;;;1.43;1.20;;;13.10;98.00;;;;;;5051439;28;20459;-64
2023/03/26 11:16:14;;;;;;;2.33;1.20;;;13.20;98.00;;;;;;5051466;28;20938;-64
2023/03/26 11:18:46;;;;;;;4.33;1.40;;;13.10;98.00;;;;;;5051244;28;20490;-64
2023/03/26 11:21:23;;;;;;;1.43;1.20;;;13.10;98.00;;;;;;5051406;28;20486;-63
2023/03/26 11:24:02;;;;;;;1.50;1.10;;;13.20;98.00;;;;;;5051572;28;21068;-64
2023/03/26 11:26:41;;;;;;;1.40;1.30;;;13.60;98.00;;;;;;5051496;28;20523;-64
2023/03/26 11:29:28;;;;;;;2.17;1.33;;;13.90;98.00;;;;;;5051483;28;20474;-64
2023/03/26 11:32:04;;;;;;;1.50;1.20;;;14.10;98.00;;;;;;5054694;28;20457;-63
2023/03/26 11:34:35;;;;;;;1.40;1.07;;;14.00;98.00;;;;;;5055307;28;20461;-64
2023/03/26 11:37:06;;;;;;;1.50;1.20;;;14.30;98.00;;;;;;5055575;28;20460;-63
2023/03/26 11:39:44;;;;;;;1.20;1.10;;;15.00;98.00;;;;;;5055501;28;20960;-64
2023/03/26 11:42:18;;;;;;;1.40;1.20;;;15.40;98.00;;;;;;5055346;28;20484;-64
2023/03/26 11:44:51;;;;;;;1.20;1.10;;;16.00;96.80;;;;;;5055192;28;20452;-64
2023/03/26 11:47:23;;;;;;;1.33;1.23;;;16.20;94.00;;;;;;5054895;28;20821;-64
2023/03/26 11:49:53;;;;;;;1.20;1.20;;;16.30;95.00;;;;;;5055180;28;20465;-63
2023/03/26 11:52:21;;;;;;;1.20;1.00;;;16.50;92.70;;;;;;5054832;28;20475;-63
2023/03/26 11:54:49;;;;;;;1.40;1.10;;;16.70;93.10;;;;;;5054834;28;20880;-64
2023/03/26 11:57:24;;;;;;;1.20;1.00;;;16.60;95.10;;;;;;5054915;28;20480;-64
2023/03/26 11:59:57;;;;;;;1.30;1.10;;;16.50;93.70;;;;;;5046208;28;20453;-64
2023/03/26 12:02:31;;;;;;;1.90;1.13;;;16.50;93.60;;;;;;5047839;28;20500;-64
2023/03/26 12:05:16;;;;;;;1.20;1.10;;;16.30;93.70;;;;;;5053999;28;20546;-64
2023/03/26 12:07:54;;;;;;;1.70;1.20;;;16.50;94.00;;;;;;5053339;28;20457;-64
2023/03/26 12:10:27;;;;;;;1.50;1.30;;;16.40;93.20;;;;;;5054390;28;20501;-64
2023/03/26 12:12:56;;;;;;;1.50;1.10;;;16.20;90.30;;;;;;5053858;28;20458;-64
2023/03/26 12:15:25;;;;;;;1.30;1.10;;;15.60;91.90;;;;;;5053863;28;20531;-64
2023/03/26 12:17:56;;;;;;;2.10;1.40;;;15.40;94.90;;;;;;5053950;28;20487;-64
2023/03/26 12:20:37;;;;;;;1.60;1.33;;;15.30;96.50;;;;;;5053415;28;20487;-64
2023/03/26 12:23:07;;;;;;;1.80;1.20;;;15.20;95.70;;;;;;5053759;28;20582;-64
2023/03/26 12:25:38;;;;;;;1.20;1.20;;;15.10;97.20;;;;;;5052635;28;20485;-64
2023/03/26 12:28:17;;;;;;;1.67;1.20;;;15.00;96.90;;;;;;5053578;28;21022;-64
2023/03/26 12:30:53;;;;;;;3.20;1.10;;;15.00;97.50;;;;;;5053764;28;20456;-64
2023/03/26 12:33:25;;;;;;;1.87;1.20;;;15.30;98.00;;;;;;5053581;28;20552;-64
2023/03/26 12:35:54;;;;;;;1.20;1.20;;;15.20;96.40;;;;;;5053752;28;20490;-63
2023/03/26 12:38:31;;;;;;;3.30;1.20;;;15.00;96.80;;;;;;5053585;28;20462;-64
2023/03/26 12:41:10;;;;;;;2.43;1.20;;;14.70;98.00;;;;;;5053629;28;20555;-64
2023/03/26 12:43:40;;;;;;;1.70;1.30;;;14.40;98.00;;;;;;5052625;28;20457;-63
2023/03/26 12:46:26;;;;;;;1.50;1.20;;;14.10;98.00;;;;;;5053183;28;20884;-63
2023/03/26 12:48:55;;;;;;;1.30;1.10;;;13.80;98.00;;;;;;5053569;28;20462;-63
2023/03/26 12:51:39;;;;;;;3.23;1.40;;;13.60;98.00;;;;;;5053550;28;20464;-63
2023/03/26 12:54:36;;;;;;;1.20;1.10;;;13.60;98.00;;;;;;5051974;28;20463;-63
2023/03/26 12:57:21;;;;;;;1.57;1.20;;;13.70;98.00;;;;;;5053144;28;20456;-63
2023/03/26 13:00:05;;;;;;;1.50;1.10;;;14.00;98.00;;;;;;5052986;28;20509;-63
2023/03/26 13:02:59;;;;;;;1.60;1.20;;;14.40;98.00;;;;;;5053081;28;20489;-64
2023/03/26 13:05:38;;;;;;;4.17;1.20;;;14.40;98.00;;;;;;5052952;28;20467;-63
2023/03/26 13:08:31;;;;;;;2.03;1.20;;;14.30;98.00;;;;;;5051801;28;20827;-64
2023/03/26 13:11:07;;;;;;;1.40;1.33;;;14.10;98.00;;;;;;5051177;28;20504;-63
2023/03/26 13:13:56;;;;;;;1.83;1.23;;;13.90;98.00;;;;;;5053025;28;20467;-64
2023/03/26 13:16:31;;;;;;;3.10;1.13;;;13.70;98.00;;;;;;5052949;28;20460;-63
2023/03/26 13:19:03;;;;;;;1.87;1.27;;;13.80;98.00;;;;;;5052729;28;20468;-64
2023/03/26 13:21:42;;;;;;;1.67;1.20;;;14.40;98.00;;;;;;5052635;28;20484;-63
2023/03/26 13:24:20;;;;;;;3.93;1.67;;;14.70;98.00;;;;;;5052570;28;20460;-63
2023/03/26 13:26:59;;;;;;;1.20;0.97;;;15.00;98.00;;;;;;5052729;28;20569;-64
2023/03/26 13:29:37;;;;;;;1.90;1.30;;;15.00;98.00;;;;;;5052580;28;20460;-63